Timeline UpdatesTrip UpdatesNews PostsPvt PostsTravel TipsAdmin PostsConv PostsFollowed PostsChat RequestsBlog PostsPNR Posts

Disclaimer
Search
 
 
Thu Jul 24, 2014 20:52:08 ISTHomeTrainsΣChainsAtlasPNRForumGalleryNewsFAQTripsMembersLoginFeedback
No Recent News for this Train
Other Trains in the News **new
Latest...
⇐ Return Journey: Train# 54378

54377/Prayag-Bareilly Passenger (UnReserved)

Jan 07 2014 (7:32PM)
Change Departure Station:
Change Arrival Station:
Post a Train Travel TipPost a Train Travel Tip **new
Post a Comment/Question/Picture/VideoPost a Comment/Question/Picture/Video
Pantry/Catering
???
RSA - Rake Sharing
Rake/Coach Composition
Loco
News    PNR    Forum    Time-Table    Availability    Fare Chart    Map    Arr/Dep History    Trips    Gallery    ΣChains    X/O    Timeline    
Travel Time: 11h 22m    49 halts    Distance: 372 km    Avg Speed: 32 km/hr
Type: Passenger
Zone: NR/Northern
Departs @ 01:55
Platform# ???
SMTWTFS
Prayag Junction/PRG 
Arrives @ 13:17
Platform# ???
SMTWTFS
Bahadurpur Halt/BHDH 

49 halts. 54 intermediate Stations between Prayag Junction and Bahadurpur Halt

Show ALL intermediate Stations  Show Old Time-Table

#CodeStation NameX/OArrivesAvgDepartsAvgHaltPFDay#KmSpeedElevZoneAddress
1PRG»Prayag Junction (3)»  -01:55---10.03296mNRAllahabad, Uttar Pradesh
2PFMPhaphamau Junction (3)  02:07-02:08-1m--16.36799mNRAllahabad, Uttar Pradesh
3SPGLSarai Gopal  02:15-02:16-1m--114.141101mNRAllahabad Bypass, Uttar Pradesh
4ARPAtrampur  02:25-02:26-1m--120.353105mNRAtrampur Railway Station, Uttar Pradesh
5RMCRam Chaura Road  02:34-02:35-1m--127.352103mNRAnapur - Mansurabad Road, Uttar Pradesh
6LGOLalgopalGanj  02:43-02:44-1m--134.355104mNRLal Gopalganj, Uttar Pradesh
7BHDRBhadri  02:52-02:53-1m--141.648106mNRNational Highway 24B, Uttar Pradesh
8KHNMKunda Harnamganj (2)  03:02-03:03-1m--148.859110mNRKunda, Uttar Pradesh
9GRMRGarhi Manikpur  03:15-03:16-1m--160.648113mNRGarhi Manikpur, Uttar Pradesh
10PQNPariawan Kalakankar Road  03:25-03:26-1m--167.757115mNRPwn Klaknder Rd, Uttar Pradesh
11ARKAArkha  03:35-03:36-1m--176.317115mNRLucknow Allahabad Rd, Uttar Pradesh
12UCRUnchahar JunctionX  03:44-03:45-1m--178.661116mNRUnchahar, Uttar Pradesh
13RCPRamachandrapur  03:56-03:57-1m--189.845114mNRLucknow Allahabad Rd, Uttar Pradesh
14LMNLachhmanpur  04:05-04:06-1m--195.868119mNRUnchahar, Uttar Pradesh
15DYPDaryapur Junction  04:19-04:20-1m--1110.624115mNRNational Highway 24B, Uttar Pradesh
16RBLRae Bareli Junction (4)  04:35-04:40-5m--1116.542116mNRRaebareli, Uttar Pradesh
17GANGGangaGanj (2)  04:51-04:52-1m--1124.170118mNRBachhrawan, Uttar Pradesh
18HCPHarchandpur (3)  04:58-04:59-1m--1131.247118mNRRae Bareli, Uttar Pradesh
19KVGKundanganj (2)  05:07-05:08-1m--1137.552119mNRHarchandpur, Uttar Pradesh
20BCNBachhrawan (2)X  05:19-05:20-1m--1147.114124mNRLucknow, Uttar Pradesh
21SAGRShrirajnagar (1)X  05:44-05:45-1m11152.819122mNRMohanlalGanj, Uttar Pradesh
22NHNNigohan (1)X  06:04-06:05-1m11158.818120mNRLucknow, Uttar Pradesh
23KKAHKankaha (1)  06:28-06:29-1m11165.737125mNRBachhrawan, Uttar Pradesh
24MLJMohanlalGanj (1)  06:42-06:43-1m11173.730124mNRMohanlalganj, Uttar Pradesh
25UTRUtraitia Junction (2)  07:00-07:01-1m--1182.217124mNRLucknow, Uttar Pradesh
26LKOLucknow Charbagh (9)X  07:45-08:20-35m51194.325123mNR226004, Uttar Pradesh
27AMGAlamnagar (3)X  08:37-08:38-1m--1201.450126mNRLucknow, Uttar Pradesh
28KKJKakori (3)X  08:47-08:48-1m--1208.958129mNRSH 25, Uttar Pradesh
29MLDMalihabad  08:58-08:59-1m--1218.543130mNRMalihabad, Uttar Pradesh
30DILDilawarnagarX  09:07-09:08-1m--1224.251133mNRSH 25, Uttar Pradesh
31RBDRahimabadX  09:17-09:18-1m--1231.860132mNRSH 25, Uttar Pradesh
32SANSandila (3)X  09:29-09:30-1m--1242.853132mNRSandila, Uttar Pradesh
33UTAUmar TaliO  09:36-09:37-1m--1248.143135mNRHardoi, Uttar Pradesh
34DLQDalelnagar  09:46-09:47-1m--1254.586136mNRSH 25, Uttar Pradesh
35BLMBalamu Junction (4)X  09:53-09:58-5m--1263.140139mNRBalamau, Uttar Pradesh
36BGHBaghauli  10:11-10:12-1m--1271.946141mNRsharda nehar, Uttar Pradesh
37MSTMasitX  10:21-10:22-1m--1278.850141mNRSH 25, Uttar Pradesh
38KARKarnaX  10:31-10:32-1m--1286.354143mNRHardoi, Uttar Pradesh
39HRIHardoi (5)X  10:43-10:44-1m--1296.239146mNRHardoi, Uttar Pradesh
40KUFKaurhaX  10:57-10:58-1m--1304.653148mNRSH 25, Uttar Pradesh
41BEGBehtagokul  11:08-11:09-1m--1313.548152mNRBehtagokul, Uttar Pradesh
42TDPTodarpur  11:17-11:18-1m--1319.926147mNRSH 25, Uttar Pradesh
43SHRMSharma  11:24-11:25-1m--1322.551150mNRSH 25, Uttar Pradesh
44AJIAnjhi Shahabad  11:32-11:33-1m--1328.447148mNRAnjhi Shahabad, Uttar Pradesh
45AIGAlgawan  11:41-11:42-1m--1334.757152mNRAlgawan, Uttar Pradesh
46KHKahiliyaX  11:51-11:52-1m--1343.212152mNRSH 25, Uttar Pradesh
47ROZARoza Junction (4)X  12:36-12:37-1m--1351.842156mNRShahjahanpur, Uttar Pradesh
48SXKShahjahanpur CourtX  12:45-12:46-1m--1357.47160mNRShahjahanpur, Uttar Pradesh
49SPNShahjahanpur Junction (3)X  12:55-13:00-5m--1358.456156mNRShahjahanpur, Uttar Pradesh
50BTRABanthra  13:09-13:10-1m--1366.848154mNRNH 24, Uttar Pradesh
51BHDH•Bahadurpur Halt•X  13:17-13:18-1m--1372.435154mNRNH 24, Uttar Pradesh
52TLHTilhar  13:25-13:26-1m--1376.558163mNRTilhar, Uttar Pradesh
53MKMiranpur Katra  13:36-13:37-1m--1386.248162mNRShahjahanpur, Uttar Pradesh
54BLPUBilpur  13:46-13:47-1m--1393.447161mNRFatehganj, Uttar Pradesh
55TSATisuaX  13:56-13:57-1m--1400.551165mNRNational Highway 24, Uttar Pradesh
56PMRPitambarpur  14:07-14:08-1m--1409.057171mNRPitambarpur, Uttar Pradesh
57RYSRasuriya  14:18-14:19-1m--1418.444174mNRNH 24, Uttar Pradesh
58CHTIChanehti Junction  14:28-14:29-1m--1425.16168mNRBareilly, Uttar Pradesh
59BEBareilly Junction (4)  15:10--31428.9-174mNRBareilly, Uttar Pradesh
Scroll to Top
Scroll to Bottom